Time;durP1;ratioP1;P1;durP2;ratioP2;P2;SDS_P1;SDS_P2;PMS_P1;PMS_P2;Temp;Humidity;BMP_temperature;BMP_pressure;BME280_temperature;BME280_humidity;BME280_pressure;Samples;Min_cycle;Max_cycle;Signal;HPM_P1;HPM_P2
2024/01/21 02:56:50;;;;;;;;;;;-1.30;99.90;;;;;;2621943;46;20254;-76
2024/01/21 02:59:20;;;;;;;;;;;-2.20;99.90;;;;;;2620800;54;19939;-77
2024/01/21 03:01:50;;;;;;;;;;;-2.30;99.90;;;;;;2626398;46;19944;-77
2024/01/21 03:04:20;;;;;;;;;;;-2.30;99.90;;;;;;2626546;54;19934;-79
2024/01/21 03:06:50;;;;;;;;;;;-2.40;99.90;;;;;;2621652;54;19988;-77
2024/01/21 03:09:20;;;;;;;;;;;-2.40;99.90;;;;;;2623182;47;20025;-78
2024/01/21 03:11:56;;;;;;;;;;;-2.40;99.90;;;;;;2623177;46;20034;-78
2024/01/21 03:14:26;;;;;;;;;;;-2.30;99.90;;;;;;2625465;39;20570;-77
2024/01/21 03:16:56;;;;;;;;;;;-2.30;99.90;;;;;;2620335;47;19995;-76
2024/01/21 03:19:26;;;;;;;;;;;-2.40;99.90;;;;;;2624556;54;19943;-78
2024/01/21 03:21:56;;;;;;;;;;;-2.40;99.90;;;;;;2622785;54;19946;-78
2024/01/21 03:24:26;;;;;;;;;;;-2.40;99.90;;;;;;2621260;47;19975;-77
2024/01/21 03:26:59;;;;;;;;;;;-2.40;99.90;;;;;;2620477;54;20785;-76
2024/01/21 03:29:29;;;;;;;;;;;-2.50;99.90;;;;;;2622751;39;20338;-77
2024/01/21 03:31:58;;;;;;;;;;;-2.40;99.90;;;;;;2619159;47;19939;-76
2024/01/21 03:34:28;;;;;;;;;;;-2.50;99.90;;;;;;2617119;47;19995;-76
2024/01/21 03:36:58;;;;;;;;;;;-2.50;99.90;;;;;;2617543;47;19963;-77
2024/01/21 03:39:28;;;;;;;;;;;-2.50;99.90;;;;;;2615430;54;19950;-77
2024/01/21 03:42:01;;;;;;;;;;;-2.50;99.90;;;;;;2618094;47;20042;-77
2024/01/21 03:44:31;;;;;;;;;;;-2.30;99.90;;;;;;2623163;54;19926;-76
2024/01/21 03:47:01;;;;;;;;;;;-2.50;99.90;;;;;;2629801;54;19963;-77
2024/01/21 03:49:30;;;;;;;;;;;-2.60;99.90;;;;;;2617880;49;19995;-77
2024/01/21 03:52:01;;;;;;;;;;;-2.60;99.90;;;;;;2617296;46;19951;-77
2024/01/21 03:54:30;;;;;;;;;;;-2.60;99.90;;;;;;2617655;54;19947;-76
2024/01/21 03:57:03;;;;;;;;;;;-2.60;99.90;;;;;;2624034;47;19950;-78
2024/01/21 03:59:33;;;;;;;;;;;-2.60;99.90;;;;;;2618915;47;20447;-78
2024/01/21 04:02:03;;;;;;;;;;;-2.70;99.90;;;;;;2615656;47;20449;-76
2024/01/21 04:04:33;;;;;;;;;;;-2.60;99.90;;;;;;2617819;47;20440;-77
2024/01/21 04:07:03;;;;;;;;;;;-2.60;99.90;;;;;;2616810;47;19958;-76
2024/01/21 04:09:32;;;;;;;;;;;-2.50;99.90;;;;;;2616871;54;19946;-76
2024/01/21 04:12:05;;;;;;;;;;;-2.50;99.90;;;;;;2616934;54;19946;-76
2024/01/21 04:14:35;;;;;;;;;;;-2.50;99.90;;;;;;2617243;54;19947;-77
2024/01/21 04:17:05;;;;;;;;;;;-2.40;99.90;;;;;;2616436;54;19954;-77
2024/01/21 04:19:35;;;;;;;;;;;-2.50;99.90;;;;;;2617495;54;19958;-76
2024/01/21 04:22:05;;;;;;;;;;;-2.30;99.90;;;;;;2616694;39;20465;-76
2024/01/21 04:24:35;;;;;;;;;;;-2.70;99.90;;;;;;2616532;47;20551;-77
2024/01/21 04:27:08;;;;;;;;;;;-2.70;99.90;;;;;;2617129;47;19947;-77
2024/01/21 04:29:37;;;;;;;;;;;-2.70;99.90;;;;;;2618799;46;19962;-78
2024/01/21 04:32:07;;;;;;;;;;;-2.70;99.90;;;;;;2619926;54;19985;-78
2024/01/21 04:34:37;;;;;;;;;;;-2.60;99.90;;;;;;2622324;54;19962;-76
2024/01/21 04:37:07;;;;;;;;;;;-2.60;99.90;;;;;;2619155;54;19953;-78
2024/01/21 04:39:37;;;;;;;;;;;-2.50;99.90;;;;;;2620753;47;19979;-75
2024/01/21 04:42:10;;;;;;;;;;;-2.60;99.90;;;;;;2627775;54;19933;-78
2024/01/21 04:44:40;;;;;;;;;;;-2.50;99.90;;;;;;2618187;54;19994;-77
2024/01/21 04:47:09;;;;;;;;;;;-2.50;99.90;;;;;;2619060;47;19942;-78
2024/01/21 04:49:39;;;;;;;;;;;-2.50;99.90;;;;;;2630110;54;19927;-77
2024/01/21 04:52:09;;;;;;;;;;;-2.40;99.90;;;;;;2624831;54;19947;-77
2024/01/21 04:54:39;;;;;;;;;;;-2.40;99.90;;;;;;2617615;54;19943;-78
2024/01/21 04:57:12;;;;;;;;;;;-2.30;99.90;;;;;;2617094;46;19954;-77
2024/01/21 04:59:42;;;;;;;;;;;-2.30;99.90;;;;;;2617482;47;19974;-76
2024/01/21 05:02:11;;;;;;;;;;;-1.90;99.90;;;;;;2617091;47;19998;-76
2024/01/21 05:04:41;;;;;;;;;;;-2.20;99.90;;;;;;2617819;54;19971;-75
2024/01/21 05:07:11;;;;;;;;;;;-2.20;99.90;;;;;;2615826;47;19955;-76
2024/01/21 05:09:41;;;;;;;;;;;-2.20;99.90;;;;;;2616763;47;19945;-79
2024/01/21 05:12:14;;;;;;;;;;;-2.20;99.90;;;;;;2620652;54;19994;-77
2024/01/21 05:14:44;;;;;;;;;;;-2.20;99.90;;;;;;2621168;39;20394;-78
2024/01/21 05:17:14;;;;;;;;;;;-2.20;99.90;;;;;;2621148;46;19935;-77
2024/01/21 05:19:44;;;;;;;;;;;-2.20;99.90;;;;;;2618750;47;20026;-77
2024/01/21 05:22:14;;;;;;;;;;;-2.10;99.90;;;;;;2617868;54;19939;-76
2024/01/21 05:24:43;;;;;;;;;;;-2.10;99.90;;;;;;2618104;47;19947;-77
2024/01/21 05:27:16;;;;;;;;;;;-2.10;99.90;;;;;;2618651;39;20426;-78
2024/01/21 05:29:46;;;;;;;;;;;-2.10;99.90;;;;;;2618690;54;19939;-78
2024/01/21 05:32:16;;;;;;;;;;;-2.10;99.90;;;;;;2618166;47;19999;-78
2024/01/21 05:34:45;;;;;;;;;;;-2.10;99.90;;;;;;2620161;47;20492;-77
2024/01/21 05:37:15;;;;;;;;;;;-2.10;99.90;;;;;;2625353;47;19950;-78
2024/01/21 05:39:46;;;;;;;;;;;-2.10;99.90;;;;;;2621487;47;19958;-77
2024/01/21 05:42:18;;;;;;;;;;;-2.20;99.90;;;;;;2623811;54;19945;-77
2024/01/21 05:44:48;;;;;;;;;;;-2.10;99.90;;;;;;2618014;54;19999;-77
2024/01/21 05:47:18;;;;;;;;;;;-2.30;99.90;;;;;;2617945;47;19965;-77
2024/01/21 05:49:47;;;;;;;;;;;-2.40;99.90;;;;;;2624572;47;19935;-79
2024/01/21 05:52:17;;;;;;;;;;;-2.40;99.90;;;;;;2630209;47;19929;-77
2024/01/21 05:54:47;;;;;;;;;;;-2.30;99.90;;;;;;2620827;47;20018;-76
2024/01/21 05:57:20;;;;;;;;;;;-2.30;99.90;;;;;;2617256;46;19966;-78
2024/01/21 05:59:49;;;;;;;;;;;-2.30;99.90;;;;;;2619228;47;19954;-77
2024/01/21 06:02:19;;;;;;;;;;;-2.10;99.90;;;;;;2619818;39;20143;-78
2024/01/21 06:04:50;;;;;;;;;;;-2.30;99.90;;;;;;2620856;47;19938;-77
2024/01/21 06:07:20;;;;;;;;;;;-2.30;99.90;;;;;;2620394;54;19947;-77
2024/01/21 06:09:49;;;;;;;;;;;-2.30;99.90;;;;;;2621022;46;19958;-79
2024/01/21 06:12:22;;;;;;;;;;;-2.20;99.90;;;;;;2623027;54;19965;-78
2024/01/21 06:14:52;;;;;;;;;;;-2.20;99.90;;;;;;2626722;46;20313;-77
2024/01/21 06:17:22;;;;;;;;;;;-3.20;99.90;;;;;;2627453;54;20028;-77
2024/01/21 06:19:52;;;;;;;;;;;-2.30;99.90;;;;;;2628384;54;19947;-78
2024/01/21 06:22:22;;;;;;;;;;;-2.30;99.90;;;;;;2625387;54;19971;-77
2024/01/21 06:24:52;;;;;;;;;;;-2.30;99.90;;;;;;2621317;54;19947;-77
2024/01/21 06:27:25;;;;;;;;;;;-2.30;99.90;;;;;;2619036;47;19942;-77
2024/01/21 06:29:55;;;;;;;;;;;-2.30;99.90;;;;;;2617686;47;19946;-77
2024/01/21 06:32:24;;;;;;;;;;;-2.30;99.90;;;;;;2620348;54;19946;-78
2024/01/21 06:34:54;;;;;;;;;;;-2.30;99.90;;;;;;2621624;39;20108;-77
2024/01/21 06:37:24;;;;;;;;;;;-2.30;99.90;;;;;;2622771;47;19950;-78
2024/01/21 06:39:54;;;;;;;;;;;-2.20;99.90;;;;;;2621330;47;19951;-76
2024/01/21 06:42:34;;;;;;;;;;;-2.20;99.90;;;;;;2622982;39;20464;-79
2024/01/21 06:45:04;;;;;;;;;;;-2.30;99.90;;;;;;2618256;47;19947;-77
2024/01/21 06:47:34;;;;;;;;;;;-2.20;99.90;;;;;;2621679;54;19942;-77
2024/01/21 06:50:04;;;;;;;;;;;-2.20;99.90;;;;;;2631007;54;19927;-75
2024/01/21 06:52:33;;;;;;;;;;;-2.30;99.90;;;;;;2623308;54;19983;-78
2024/01/21 06:55:03;;;;;;;;;;;-2.40;99.90;;;;;;2620755;47;19947;-79
2024/01/21 06:57:36;;;;;;;;;;;-2.50;99.90;;;;;;2621459;46;20063;-77
2024/01/21 07:00:07;;;;;;;;;;;-2.50;99.90;;;;;;2621140;47;19946;-77
2024/01/21 07:02:37;;;;;;;;;;;-2.60;99.90;;;;;;2622358;54;19938;-77
2024/01/21 07:05:07;;;;;;;;;;;-2.60;99.90;;;;;;2621675;54;19979;-78
2024/01/21 07:07:37;;;;;;;;;;;-2.60;99.90;;;;;;2621282;54;19963;-78
2024/01/21 07:10:08;;;;;;;;;;;-2.70;99.90;;;;;;2621518;54;19938;-78
2024/01/21 07:12:41;;;;;;;;;;;-2.80;99.90;;;;;;2622274;47;20057;-79
2024/01/21 07:15:11;;;;;;;;;;;-2.70;99.90;;;;;;2620678;47;19949;-77
2024/01/21 07:17:41;;;;;;;;;;;-2.80;99.90;;;;;;2623532;47;19983;-78
2024/01/21 07:20:13;;;;;;;;;;;-2.80;99.90;;;;;;2625855;46;19942;-78
2024/01/21 07:22:42;;;;;;;;;;;-2.80;99.90;;;;;;2623096;46;20010;-78
2024/01/21 07:25:14;;;;;;;;;;;-2.80;99.90;;;;;;2622923;54;19938;-79
2024/01/21 07:27:47;;;;;;;;;;;-2.80;99.90;;;;;;2620220;47;19999;-78
2024/01/21 07:30:17;;;;;;;;;;;-2.80;99.90;;;;;;2619281;54;19950;-79
2024/01/21 07:32:47;;;;;;;;;;;-2.90;99.90;;;;;;2621375;54;19946;-79
2024/01/21 07:35:21;;;;;;;;;;;-3.00;99.90;;;;;;2622367;54;19939;-81
2024/01/21 07:37:51;;;;;;;;;;;-3.00;99.90;;;;;;2624212;46;19947;-80
2024/01/21 07:40:21;;;;;;;;;;;-3.00;99.90;;;;;;2627300;47;19943;-82
2024/01/21 07:42:53;;;;;;;;;;;-3.10;99.90;;;;;;2630575;47;19943;-81
2024/01/21 07:45:23;;;;;;;;;;;-3.00;99.90;;;;;;2631869;39;20375;-81
2024/01/21 07:47:56;;;;;;;;;;;-3.10;99.90;;;;;;2630752;47;19955;-81
2024/01/21 07:50:26;;;;;;;;;;;-3.10;99.90;;;;;;2630528;54;19985;-81
2024/01/21 07:52:56;;;;;;;;;;;-2.50;99.90;;;;;;2628933;54;19962;-83
2024/01/21 07:55:26;;;;;;;;;;;-3.10;99.90;;;;;;2628144;54;19947;-81
2024/01/21 07:57:59;;;;;;;;;;;-3.00;99.90;;;;;;2626797;46;19943;-81
2024/01/21 08:00:29;;;;;;;;;;;-3.10;99.90;;;;;;2625712;54;19946;-81
2024/01/21 08:02:58;;;;;;;;;;;-3.10;99.90;;;;;;2622967;46;19938;-81
2024/01/21 08:05:29;;;;;;;;;;;-3.10;99.90;;;;;;2623013;54;19947;-81
2024/01/21 08:07:59;;;;;;;;;;;-3.10;99.90;;;;;;2623975;54;20677;-81
2024/01/21 08:10:29;;;;;;;;;;;-3.10;99.90;;;;;;2628641;54;19947;-78
2024/01/21 08:13:01;;;;;;;;;;;-2.40;99.90;;;;;;2603441;47;20038;-73
2024/01/21 08:26:19;;;;;;;;;;;-3.10;99.90;;;;;;2595855;54;19977;-72
2024/01/21 08:28:51;;;;;;;;;;;-3.10;99.90;;;;;;2597525;54;19947;-72
2024/01/21 08:31:21;;;;;;;;;;;-2.70;99.90;;;;;;2597750;39;20504;-72
2024/01/21 08:33:50;;;;;;;;;;;-3.10;99.90;;;;;;2599816;54;19993;-73
2024/01/21 08:36:20;;;;;;;;;;;-3.00;99.90;;;;;;2599654;47;19951;-71
2024/01/21 08:38:51;;;;;;;;;;;-3.00;99.90;;;;;;2597137;39;20452;-73
2024/01/21 08:41:20;;;;;;;;;;;-3.10;99.90;;;;;;2598387;54;22281;-72
2024/01/21 08:43:53;;;;;;;;;;;-3.00;99.90;;;;;;2600245;54;19949;-72
2024/01/21 08:46:22;;;;;;;;;;;-3.10;99.90;;;;;;2599652;54;20053;-71
2024/01/21 08:48:52;;;;;;;;;;;-3.10;99.90;;;;;;2599228;46;19954;-73
2024/01/21 08:51:22;;;;;;;;;;;-3.00;99.90;;;;;;2599272;47;19954;-73
2024/01/21 08:53:56;;;;;;;;;;;-3.10;99.90;;;;;;2597805;54;20573;-72
2024/01/21 08:56:27;;;;;;;;;;;-3.10;99.90;;;;;;2598187;47;19958;-72
2024/01/21 08:58:59;;;;;;;;;;;-3.10;99.90;;;;;;2596754;47;20053;-72
2024/01/21 09:01:29;;;;;;;;;;;-3.10;99.90;;;;;;2599086;47;19947;-72
2024/01/21 09:03:59;;;;;;;;;;;-3.00;99.90;;;;;;2600304;54;19981;-73
2024/01/21 09:06:29;;;;;;;;;;;-3.10;99.90;;;;;;2599570;47;19962;-72
2024/01/21 09:09:00;;;;;;;;;;;-3.00;99.90;;;;;;2606736;54;19947;-72
2024/01/21 09:11:30;;;;;;;;;;;-3.00;99.90;;;;;;2608312;47;19950;-71
2024/01/21 09:14:02;;;;;;;;;;;-3.10;99.90;;;;;;2607421;54;19953;-72
2024/01/21 09:16:32;;;;;;;;;;;-3.10;99.90;;;;;;2606271;54;20010;-73
2024/01/21 09:19:01;;;;;;;;;;;-3.10;99.90;;;;;;2602609;54;19951;-73
2024/01/21 09:21:33;;;;;;;;;;;-3.10;99.90;;;;;;2601648;47;19947;-71
2024/01/21 09:24:04;;;;;;;;;;;-3.10;99.90;;;;;;2599487;54;19961;-72
2024/01/21 09:26:34;;;;;;;;;;;-3.00;99.90;;;;;;2598644;54;20049;-74
2024/01/21 09:29:07;;;;;;;;;;;-3.00;99.90;;;;;;2599140;47;19991;-73
2024/01/21 09:31:37;;;;;;;;;;;-3.00;99.90;;;;;;2597304;54;19950;-76
2024/01/21 09:34:06;;;;;;;;;;;-3.00;99.90;;;;;;2599342;54;21066;-75
2024/01/21 09:36:37;;;;;;;;;;;-3.10;99.90;;;;;;2598609;54;19950;-74
2024/01/21 09:39:09;;;;;;;;;;;-3.70;99.90;;;;;;2596708;54;20559;-76
2024/01/21 09:41:40;;;;;;;;;;;-2.90;99.90;;;;;;2599103;39;20369;-75
2024/01/21 09:44:13;;;;;;;;;;;-2.90;99.90;;;;;;2598291;54;19957;-75
2024/01/21 09:46:43;;;;;;;;;;;-1.50;99.90;;;;;;2597759;47;19951;-77
2024/01/21 09:49:12;;;;;;;;;;;-2.90;99.90;;;;;;2597246;47;20792;-75
2024/01/21 09:51:42;;;;;;;;;;;-2.90;99.90;;;;;;2598900;47;19958;-76
2024/01/21 09:54:12;;;;;;;;;;;-2.80;99.90;;;;;;2598460;54;19954;-76
2024/01/21 09:56:43;;;;;;;;;;;-2.80;99.90;;;;;;2600157;39;20407;-74
2024/01/21 09:59:15;;;;;;;;;;;-2.90;99.90;;;;;;2599407;54;19934;-72
2024/01/21 10:01:45;;;;;;;;;;;-2.90;99.90;;;;;;2599149;54;20482;-73
2024/01/21 10:04:16;;;;;;;;;;;-2.90;99.90;;;;;;2598797;54;19950;-74
2024/01/21 10:06:46;;;;;;;;;;;-2.80;99.90;;;;;;2599615;54;19947;-73
2024/01/21 10:09:16;;;;;;;;;;;-2.80;99.90;;;;;;2600257;54;19947;-71
2024/01/21 10:11:49;;;;;;;;;;;-2.70;99.90;;;;;;2601143;39;20333;-72
2024/01/21 10:14:22;;;;;;;;;;;-2.70;99.90;;;;;;2598414;47;19939;-72
2024/01/21 10:16:52;;;;;;;;;;;-2.70;99.90;;;;;;2617792;31;20405;-73
2024/01/21 10:19:27;;;;;;;;;;;-2.70;99.90;;;;;;2618359;54;20042;-72
2024/01/21 10:22:08;;;;;;;;;;;-2.70;99.90;;;;;;2614289;54;20041;-72
2024/01/21 10:24:41;;;;;;;;;;;-2.60;99.90;;;;;;2613035;54;19938;-72
2024/01/21 18:52:04;;;;;;;;;;;1.60;99.90;;;;;;2599825;54;19939;-72
2024/01/21 18:54:37;;;;;;;;;;;2.20;99.90;;;;;;2614010;47;20569;-72
2024/01/21 18:57:10;;;;;;;;;;;1.60;99.90;;;;;;2615007;54;19953;-71
2024/01/21 18:59:44;;;;;;;;;;;1.70;99.90;;;;;;2614359;39;20346;-72
2024/01/21 19:02:16;;;;;;;;;;;1.70;99.90;;;;;;2612872;54;19950;-71
2024/01/21 19:04:46;;;;;;;;;;;1.70;99.90;;;;;;2615541;47;19959;-71
2024/01/21 19:07:21;;;;;;;;;;;1.70;99.90;;;;;;2614206;54;19942;-73
2024/01/21 19:09:58;;;;;;;;;;;1.70;99.90;;;;;;2614986;54;19953;-71
2024/01/21 19:12:28;;;;;;;;;;;1.70;99.90;;;;;;2617174;54;19947;-72
2024/01/21 19:14:58;;;;;;;;;;;1.70;99.90;;;;;;2617074;47;19946;-73
2024/01/21 19:17:27;;;;;;;;;;;1.70;99.90;;;;;;2615886;54;20457;-72
2024/01/21 19:19:59;;;;;;;;;;;1.80;99.90;;;;;;2617126;54;19938;-72
2024/01/21 19:22:32;;;;;;;;;;;1.80;99.90;;;;;;2622408;47;19950;-73
2024/01/21 19:25:02;;;;;;;;;;;1.80;99.90;;;;;;2616335;54;19994;-75
2024/01/21 19:27:32;;;;;;;;;;;1.80;99.90;;;;;;2616955;47;19939;-73
2024/01/21 19:30:02;;;;;;;;;;;1.80;99.90;;;;;;2616790;46;19974;-72
2024/01/21 19:32:32;;;;;;;;;;;1.80;99.90;;;;;;2615527;54;19955;-72
2024/01/21 19:35:02;;;;;;;;;;;1.80;99.90;;;;;;2616000;47;19953;-72
2024/01/21 19:37:34;;;;;;;;;;;1.80;99.90;;;;;;2616551;54;19954;-71
2024/01/21 19:40:04;;;;;;;;;;;1.90;99.90;;;;;;2617005;54;19980;-73
2024/01/21 19:42:34;;;;;;;;;;;1.90;99.90;;;;;;2616656;39;20360;-72
2024/01/21 19:45:03;;;;;;;;;;;1.90;99.90;;;;;;2618760;54;20470;-73
2024/01/21 19:47:33;;;;;;;;;;;2.00;99.90;;;;;;2619930;39;20346;-73
2024/01/21 19:50:03;;;;;;;;;;;2.00;99.90;;;;;;2618602;54;19947;-73
2024/01/21 19:52:35;;;;;;;;;;;2.00;99.90;;;;;;2619380;47;19965;-73
2024/01/21 19:55:06;;;;;;;;;;;2.00;99.90;;;;;;2617878;54;19950;-76
2024/01/21 19:57:37;;;;;;;;;;;2.00;99.90;;;;;;2618084;54;19947;-72
2024/01/21 20:00:08;;;;;;;;;;;2.10;99.90;;;;;;2618594;54;19938;-73
2024/01/21 20:02:38;;;;;;;;;;;2.10;99.90;;;;;;2618877;54;19962;-74
2024/01/21 20:05:10;;;;;;;;;;;2.00;99.90;;;;;;2618633;54;19946;-73
2024/01/21 20:07:42;;;;;;;;;;;2.00;99.90;;;;;;2618440;39;20678;-71
2024/01/21 20:10:12;;;;;;;;;;;2.00;99.90;;;;;;2617025;47;19981;-70
2024/01/21 20:12:42;;;;;;;;;;;2.10;99.90;;;;;;2622507;54;19998;-71
2024/01/21 20:15:11;;;;;;;;;;;2.10;99.90;;;;;;2620628;54;19938;-72
2024/01/21 20:17:41;;;;;;;;;;;2.10;99.90;;;;;;2615028;47;20019;-72
2024/01/21 20:20:12;;;;;;;;;;;2.10;99.90;;;;;;2615508;54;20446;-72
2024/01/21 20:22:47;;;;;;;;;;;2.10;99.90;;;;;;2617595;54;19998;-72
2024/01/21 20:25:17;;;;;;;;;;;2.10;99.90;;;;;;2615943;40;20352;-73
2024/01/21 20:27:47;;;;;;;;;;;2.20;99.90;;;;;;2618630;54;19939;-73
2024/01/21 20:30:17;;;;;;;;;;;2.20;99.90;;;;;;2617247;47;19939;-72
2024/01/21 20:32:47;;;;;;;;;;;2.20;99.90;;;;;;2618066;47;19946;-73
2024/01/21 20:35:18;;;;;;;;;;;2.20;99.90;;;;;;2617951;54;19951;-72
2024/01/21 20:37:51;;;;;;;;;;;2.20;99.90;;;;;;2614401;54;19954;-71
2024/01/21 20:40:20;;;;;;;;;;;2.20;99.90;;;;;;2615725;54;19954;-77
2024/01/21 20:42:52;;;;;;;;;;;2.20;99.90;;;;;;2619000;54;20069;-75
2024/01/21 20:45:22;;;;;;;;;;;2.20;99.90;;;;;;2617773;39;20768;-74
2024/01/21 20:47:51;;;;;;;;;;;2.20;99.90;;;;;;2618370;54;19947;-74
2024/01/21 20:50:21;;;;;;;;;;;2.20;99.90;;;;;;2618660;54;20041;-74
2024/01/21 20:52:54;;;;;;;;;;;2.20;99.90;;;;;;2614898;54;20029;-73
2024/01/21 20:55:25;;;;;;;;;;;2.20;99.90;;;;;;2616888;46;19938;-73
2024/01/21 20:57:55;;;;;;;;;;;2.20;99.90;;;;;;2617693;47;19947;-74
2024/01/21 21:00:25;;;;;;;;;;;2.30;99.90;;;;;;2616963;47;19990;-76
2024/01/21 21:02:55;;;;;;;;;;;2.30;99.90;;;;;;2616430;54;20055;-71
2024/01/21 21:05:27;;;;;;;;;;;2.30;99.90;;;;;;2614774;47;20028;-72
2024/01/21 21:08:00;;;;;;;;;;;2.20;99.90;;;;;;2616032;39;20530;-71
2024/01/21 21:10:30;;;;;;;;;;;2.30;99.90;;;;;;2615895;54;19990;-71
2024/01/21 21:13:01;;;;;;;;;;;2.30;99.90;;;;;;2618767;47;19939;-71
2024/01/21 21:15:30;;;;;;;;;;;2.30;99.90;;;;;;2619458;54;19994;-72
2024/01/21 21:18:00;;;;;;;;;;;2.40;99.90;;;;;;2618336;54;20045;-72
2024/01/21 21:20:30;;;;;;;;;;;2.40;99.90;;;;;;2618442;54;20477;-72
2024/01/21 21:23:02;;;;;;;;;;;2.40;99.90;;;;;;2616202;54;19958;-70
2024/01/21 21:25:32;;;;;;;;;;;2.40;99.90;;;;;;2619028;54;19994;-72
2024/01/21 21:28:02;;;;;;;;;;;2.40;99.90;;;;;;2620077;39;20032;-72
2024/01/21 21:30:31;;;;;;;;;;;2.40;99.90;;;;;;2619234;54;19950;-72
2024/01/21 21:33:02;;;;;;;;;;;2.50;99.90;;;;;;2619796;47;19954;-72
2024/01/21 21:35:32;;;;;;;;;;;2.50;99.90;;;;;;2620246;54;20453;-71
2024/01/21 21:38:05;;;;;;;;;;;2.50;99.90;;;;;;2617855;54;19954;-71
2024/01/21 21:40:34;;;;;;;;;;;2.50;99.90;;;;;;2616181;47;19950;-72
2024/01/21 21:43:04;;;;;;;;;;;2.50;99.90;;;;;;2618144;54;19942;-72
2024/01/21 21:45:33;;;;;;;;;;;2.50;99.90;;;;;;2618394;39;20453;-72
2024/01/21 21:48:03;;;;;;;;;;;2.50;99.90;;;;;;2619593;54;20045;-73
2024/01/21 21:50:33;;;;;;;;;;;2.50;99.90;;;;;;2621183;47;19954;-73
2024/01/21 21:53:06;;;;;;;;;;;2.50;99.90;;;;;;2617815;54;19946;-72
2024/01/21 21:55:37;;;;;;;;;;;2.50;99.90;;;;;;2614792;47;19938;-73
2024/01/21 21:58:07;;;;;;;;;;;2.50;99.90;;;;;;2616267;54;19934;-72
2024/01/21 22:00:37;;;;;;;;;;;2.50;99.90;;;;;;2615552;47;20485;-72
2024/01/21 22:03:08;;;;;;;;;;;2.60;99.90;;;;;;2615473;54;19962;-72
2024/01/21 22:05:38;;;;;;;;;;;2.60;99.90;;;;;;2615838;54;19938;-72
2024/01/21 22:08:11;;;;;;;;;;;2.60;99.90;;;;;;2615299;54;19947;-73
2024/01/21 22:10:41;;;;;;;;;;;2.60;99.90;;;;;;2614742;54;19954;-72
2024/01/21 22:13:10;;;;;;;;;;;2.70;99.90;;;;;;2619025;54;20067;-72
2024/01/21 22:15:40;;;;;;;;;;;2.70;99.90;;;;;;2619860;54;19945;-72
2024/01/21 22:18:13;;;;;;;;;;;2.70;99.90;;;;;;2617432;54;19938;-72
2024/01/21 22:20:44;;;;;;;;;;;2.70;99.90;;;;;;2618917;54;19998;-72
2024/01/21 22:23:17;;;;;;;;;;;2.70;99.90;;;;;;2620695;54;19987;-74
2024/01/21 22:25:46;;;;;;;;;;;2.80;99.90;;;;;;2620019;54;19946;-73
2024/01/21 22:28:16;;;;;;;;;;;2.80;99.90;;;;;;2618948;54;19950;-73
2024/01/21 22:30:46;;;;;;;;;;;2.80;99.90;;;;;;2615851;54;19949;-73
2024/01/21 22:33:16;;;;;;;;;;;2.80;99.90;;;;;;2615207;54;19982;-72
2024/01/21 22:35:46;;;;;;;;;;;2.80;99.90;;;;;;2614959;54;20009;-72
2024/01/21 22:38:18;;;;;;;;;;;2.80;99.90;;;;;;2615450;54;19946;-73
2024/01/21 22:40:48;;;;;;;;;;;2.80;99.90;;;;;;2614304;54;19946;-73
2024/01/21 22:43:17;;;;;;;;;;;2.80;99.90;;;;;;2615064;51;21446;-73
2024/01/21 22:45:47;;;;;;;;;;;2.80;99.90;;;;;;2614417;47;19943;-72
2024/01/21 22:48:17;;;;;;;;;;;2.70;99.90;;;;;;2616006;54;19938;-72
2024/01/21 22:50:47;;;;;;;;;;;2.70;99.90;;;;;;2616018;54;19966;-72
2024/01/21 22:53:19;;;;;;;;;;;2.70;99.90;;;;;;2615931;54;19946;-73
2024/01/21 22:55:51;;;;;;;;;;;2.70;99.90;;;;;;2614334;54;20445;-72
2024/01/21 22:58:21;;;;;;;;;;;2.80;99.90;;;;;;2619547;54;19968;-72
2024/01/21 23:00:51;;;;;;;;;;;2.80;99.90;;;;;;2620447;54;20872;-73
2024/01/21 23:03:21;;;;;;;;;;;2.70;99.90;;;;;;2620826;54;19987;-72
2024/01/21 23:05:51;;;;;;;;;;;2.80;99.90;;;;;;2618178;47;20050;-73
2024/01/21 23:08:24;;;;;;;;;;;2.80;99.90;;;;;;2616313;54;19957;-72
2024/01/21 23:10:54;;;;;;;;;;;2.80;99.90;;;;;;2614992;54;19939;-73
2024/01/21 23:13:24;;;;;;;;;;;2.70;99.90;;;;;;2615478;54;19955;-73
2024/01/21 23:15:55;;;;;;;;;;;2.80;99.90;;;;;;2616161;47;19970;-73
2024/01/21 23:18:24;;;;;;;;;;;2.80;99.90;;;;;;2616407;46;19935;-73
2024/01/21 23:20:54;;;;;;;;;;;2.80;99.90;;;;;;2617615;47;19946;-72
2024/01/21 23:23:26;;;;;;;;;;;2.80;99.90;;;;;;2617550;47;19942;-72
2024/01/21 23:25:56;;;;;;;;;;;2.90;99.90;;;;;;2617270;39;20341;-73
2024/01/21 23:28:26;;;;;;;;;;;2.90;99.90;;;;;;2617449;47;19989;-73
2024/01/21 23:30:56;;;;;;;;;;;2.80;99.90;;;;;;2616132;54;19939;-73
2024/01/21 23:33:26;;;;;;;;;;;2.80;99.90;;;;;;2615121;47;19970;-73
2024/01/21 23:35:56;;;;;;;;;;;2.80;99.90;;;;;;2614644;54;19966;-72
2024/01/21 23:38:28;;;;;;;;;;;2.90;99.90;;;;;;2615281;54;19946;-73
2024/01/21 23:40:57;;;;;;;;;;;2.90;99.90;;;;;;2616021;46;19950;-72
2024/01/21 23:43:27;;;;;;;;;;;2.90;99.90;;;;;;2618396;54;20004;-72
2024/01/21 23:45:57;;;;;;;;;;;2.90;99.90;;;;;;2616657;54;20468;-72
2024/01/21 23:48:27;;;;;;;;;;;2.90;99.90;;;;;;2615296;54;19939;-72
2024/01/21 23:51:00;;;;;;;;;;;2.90;99.90;;;;;;2616757;54;20079;-72
2024/01/21 23:53:32;;;;;;;;;;;2.80;99.90;;;;;;2616075;54;19947;-72
2024/01/21 23:56:02;;;;;;;;;;;2.80;99.90;;;;;;2615135;54;19973;-73
2024/01/21 23:58:34;;;;;;;;;;;2.80;99.90;;;;;;2616163;54;19946;-72
